sensor_id;sensor_type;location;lat;lon;timestamp;P1;durP1;ratioP1;P2;durP2;ratioP2
19032;SDS011;9649;51.042;13.804;2023-11-19T00:09:53;12.83;;;8.43;;
19032;SDS011;9649;51.042;13.804;2023-11-19T01:56:56;7.63;;;4.57;;
19032;SDS011;9649;51.042;13.804;2023-11-19T02:02:22;6.10;;;4.20;;
19032;SDS011;9649;51.042;13.804;2023-11-19T02:07:25;5.83;;;3.77;;
19032;SDS011;9649;51.042;13.804;2023-11-19T02:12:30;5.47;;;3.43;;
19032;SDS011;9649;51.042;13.804;2023-11-19T02:17:35;4.60;;;3.20;;
19032;SDS011;9649;51.042;13.804;2023-11-19T02:22:39;4.40;;;3.20;;
19032;SDS011;9649;51.042;13.804;2023-11-19T02:27:46;5.07;;;3.63;;
19032;SDS011;9649;51.042;13.804;2023-11-19T02:32:55;4.90;;;3.13;;
19032;SDS011;9649;51.042;13.804;2023-11-19T02:38:00;4.10;;;2.63;;
19032;SDS011;9649;51.042;13.804;2023-11-19T02:43:09;4.53;;;2.73;;
19032;SDS011;9649;51.042;13.804;2023-11-19T02:48:12;4.47;;;2.70;;
19032;SDS011;9649;51.042;13.804;2023-11-19T02:53:16;3.90;;;2.60;;
19032;SDS011;9649;51.042;13.804;2023-11-19T02:58:20;3.57;;;2.50;;
19032;SDS011;9649;51.042;13.804;2023-11-19T03:03:26;4.60;;;2.77;;
19032;SDS011;9649;51.042;13.804;2023-11-19T03:08:39;3.87;;;2.50;;
19032;SDS011;9649;51.042;13.804;2023-11-19T03:13:46;4.03;;;2.20;;
19032;SDS011;9649;51.042;13.804;2023-11-19T03:18:49;3.20;;;2.23;;
19032;SDS011;9649;51.042;13.804;2023-11-19T03:23:51;4.40;;;2.47;;
19032;SDS011;9649;51.042;13.804;2023-11-19T03:28:55;3.27;;;2.20;;
19032;SDS011;9649;51.042;13.804;2023-11-19T03:33:59;2.70;;;2.00;;
19032;SDS011;9649;51.042;13.804;2023-11-19T03:39:02;4.03;;;2.07;;
19032;SDS011;9649;51.042;13.804;2023-11-19T03:44:06;3.00;;;2.60;;
19032;SDS011;9649;51.042;13.804;2023-11-19T03:49:09;5.23;;;2.40;;
19032;SDS011;9649;51.042;13.804;2023-11-19T03:54:13;3.20;;;2.57;;
19032;SDS011;9649;51.042;13.804;2023-11-19T03:59:17;2.90;;;2.40;;
19032;SDS011;9649;51.042;13.804;2023-11-19T04:04:21;3.30;;;2.90;;
19032;SDS011;9649;51.042;13.804;2023-11-19T04:09:24;4.80;;;3.20;;
19032;SDS011;9649;51.042;13.804;2023-11-19T04:14:28;5.70;;;3.83;;
19032;SDS011;9649;51.042;13.804;2023-11-19T04:19:31;5.53;;;3.70;;
19032;SDS011;9649;51.042;13.804;2023-11-19T04:24:34;5.07;;;3.53;;
19032;SDS011;9649;51.042;13.804;2023-11-19T04:29:38;5.23;;;3.50;;
19032;SDS011;9649;51.042;13.804;2023-11-19T04:34:41;4.03;;;3.13;;
19032;SDS011;9649;51.042;13.804;2023-11-19T04:39:44;4.33;;;3.37;;
19032;SDS011;9649;51.042;13.804;2023-11-19T04:44:49;5.43;;;4.03;;
19032;SDS011;9649;51.042;13.804;2023-11-19T04:49:51;6.80;;;4.37;;
19032;SDS011;9649;51.042;13.804;2023-11-19T04:54:54;7.50;;;5.07;;
19032;SDS011;9649;51.042;13.804;2023-11-19T04:59:58;6.93;;;5.13;;
19032;SDS011;9649;51.042;13.804;2023-11-19T05:05:01;7.73;;;5.53;;
19032;SDS011;9649;51.042;13.804;2023-11-19T05:10:06;9.13;;;5.87;;
19032;SDS011;9649;51.042;13.804;2023-11-19T05:15:11;10.43;;;6.87;;
19032;SDS011;9649;51.042;13.804;2023-11-19T05:20:14;10.83;;;6.57;;
19032;SDS011;9649;51.042;13.804;2023-11-19T05:25:17;12.03;;;7.70;;
19032;SDS011;9649;51.042;13.804;2023-11-19T05:30:22;14.10;;;8.20;;
19032;SDS011;9649;51.042;13.804;2023-11-19T05:35:25;12.00;;;8.13;;
19032;SDS011;9649;51.042;13.804;2023-11-19T05:40:28;17.37;;;9.57;;
19032;SDS011;9649;51.042;13.804;2023-11-19T05:45:32;14.57;;;9.50;;
19032;SDS011;9649;51.042;13.804;2023-11-19T05:50:35;15.33;;;9.73;;
19032;SDS011;9649;51.042;13.804;2023-11-19T05:55:38;15.63;;;9.23;;
19032;SDS011;9649;51.042;13.804;2023-11-19T06:00:49;16.70;;;9.63;;
19032;SDS011;9649;51.042;13.804;2023-11-19T06:05:52;15.70;;;9.53;;
19032;SDS011;9649;51.042;13.804;2023-11-19T06:10:55;12.70;;;7.93;;
19032;SDS011;9649;51.042;13.804;2023-11-19T06:16:00;11.53;;;7.17;;
19032;SDS011;9649;51.042;13.804;2023-11-19T06:21:04;11.37;;;6.90;;
19032;SDS011;9649;51.042;13.804;2023-11-19T06:26:10;10.43;;;6.87;;
19032;SDS011;9649;51.042;13.804;2023-11-19T06:31:14;10.30;;;6.97;;
19032;SDS011;9649;51.042;13.804;2023-11-19T06:36:18;10.23;;;6.17;;
19032;SDS011;9649;51.042;13.804;2023-11-19T06:41:20;8.30;;;5.70;;
19032;SDS011;9649;51.042;13.804;2023-11-19T06:46:24;6.93;;;5.10;;
19032;SDS011;9649;51.042;13.804;2023-11-19T06:51:27;8.17;;;5.47;;
19032;SDS011;9649;51.042;13.804;2023-11-19T06:56:31;6.43;;;4.27;;
19032;SDS011;9649;51.042;13.804;2023-11-19T07:01:35;5.83;;;4.13;;
19032;SDS011;9649;51.042;13.804;2023-11-19T07:06:39;4.57;;;3.50;;
19032;SDS011;9649;51.042;13.804;2023-11-19T07:11:43;6.63;;;4.00;;
19032;SDS011;9649;51.042;13.804;2023-11-19T07:16:48;6.00;;;3.73;;
19032;SDS011;9649;51.042;13.804;2023-11-19T07:21:52;4.40;;;3.30;;
19032;SDS011;9649;51.042;13.804;2023-11-19T07:26:55;7.27;;;4.53;;
19032;SDS011;9649;51.042;13.804;2023-11-19T07:31:59;5.13;;;3.47;;
19032;SDS011;9649;51.042;13.804;2023-11-19T07:37:03;4.43;;;3.50;;
19032;SDS011;9649;51.042;13.804;2023-11-19T07:42:06;3.87;;;2.80;;
19032;SDS011;9649;51.042;13.804;2023-11-19T07:47:11;3.47;;;2.90;;
19032;SDS011;9649;51.042;13.804;2023-11-19T07:52:15;5.63;;;3.50;;
19032;SDS011;9649;51.042;13.804;2023-11-19T07:57:20;4.90;;;3.20;;
19032;SDS011;9649;51.042;13.804;2023-11-19T08:02:26;4.63;;;3.40;;
19032;SDS011;9649;51.042;13.804;2023-11-19T08:07:30;5.67;;;3.80;;
19032;SDS011;9649;51.042;13.804;2023-11-19T08:12:33;7.20;;;4.03;;
19032;SDS011;9649;51.042;13.804;2023-11-19T08:17:37;3.80;;;3.20;;
19032;SDS011;9649;51.042;13.804;2023-11-19T08:22:40;5.23;;;3.73;;
19032;SDS011;9649;51.042;13.804;2023-11-19T08:27:43;4.50;;;3.60;;
19032;SDS011;9649;51.042;13.804;2023-11-19T08:32:48;4.00;;;3.00;;
19032;SDS011;9649;51.042;13.804;2023-11-19T08:37:51;3.43;;;2.77;;
19032;SDS011;9649;51.042;13.804;2023-11-19T08:42:54;5.57;;;3.53;;
19032;SDS011;9649;51.042;13.804;2023-11-19T08:47:58;3.30;;;2.37;;
19032;SDS011;9649;51.042;13.804;2023-11-19T08:53:01;3.37;;;2.33;;
19032;SDS011;9649;51.042;13.804;2023-11-19T08:58:07;3.33;;;2.63;;
19032;SDS011;9649;51.042;13.804;2023-11-19T09:03:12;3.00;;;2.60;;
19032;SDS011;9649;51.042;13.804;2023-11-19T09:08:15;6.83;;;3.87;;
19032;SDS011;9649;51.042;13.804;2023-11-19T09:13:19;4.57;;;3.03;;
19032;SDS011;9649;51.042;13.804;2023-11-19T09:18:23;8.77;;;4.80;;
19032;SDS011;9649;51.042;13.804;2023-11-19T09:23:26;6.37;;;3.53;;
19032;SDS011;9649;51.042;13.804;2023-11-19T09:28:30;8.43;;;5.47;;
19032;SDS011;9649;51.042;13.804;2023-11-19T09:33:34;6.67;;;4.30;;
19032;SDS011;9649;51.042;13.804;2023-11-19T09:38:37;6.90;;;4.80;;
19032;SDS011;9649;51.042;13.804;2023-11-19T09:43:40;7.03;;;4.67;;
19032;SDS011;9649;51.042;13.804;2023-11-19T09:48:44;8.10;;;4.60;;
19032;SDS011;9649;51.042;13.804;2023-11-19T09:53:49;5.63;;;3.73;;
19032;SDS011;9649;51.042;13.804;2023-11-19T09:58:52;7.07;;;4.47;;
19032;SDS011;9649;51.042;13.804;2023-11-19T10:03:57;6.13;;;3.60;;
19032;SDS011;9649;51.042;13.804;2023-11-19T10:09:00;5.60;;;3.27;;
19032;SDS011;9649;51.042;13.804;2023-11-19T10:14:06;4.90;;;3.40;;
19032;SDS011;9649;51.042;13.804;2023-11-19T10:19:11;7.67;;;4.40;;
19032;SDS011;9649;51.042;13.804;2023-11-19T10:24:30;5.63;;;3.63;;
19032;SDS011;9649;51.042;13.804;2023-11-19T10:29:35;2.73;;;1.33;;
19032;SDS011;9649;51.042;13.804;2023-11-19T10:34:40;4.17;;;1.17;;
19032;SDS011;9649;51.042;13.804;2023-11-19T10:39:53;3.03;;;1.10;;
19032;SDS011;9649;51.042;13.804;2023-11-19T10:44:57;3.63;;;1.30;;
19032;SDS011;9649;51.042;13.804;2023-11-19T10:50:01;3.00;;;1.00;;
19032;SDS011;9649;51.042;13.804;2023-11-19T10:55:05;2.85;;;1.00;;
19032;SDS011;9649;51.042;13.804;2023-11-19T11:00:16;3.00;;;0.80;;
19032;SDS011;9649;51.042;13.804;2023-11-19T11:05:23;3.13;;;1.00;;
19032;SDS011;9649;51.042;13.804;2023-11-19T11:10:28;2.00;;;0.90;;
19032;SDS011;9649;51.042;13.804;2023-11-19T11:15:36;2.22;;;0.82;;
19032;SDS011;9649;51.042;13.804;2023-11-19T11:20:43;2.08;;;0.90;;
19032;SDS011;9649;51.042;13.804;2023-11-19T11:25:48;4.35;;;0.90;;
19032;SDS011;9649;51.042;13.804;2023-11-19T11:31:03;1.92;;;1.30;;
19032;SDS011;9649;51.042;13.804;2023-11-19T11:36:19;2.85;;;1.00;;
19032;SDS011;9649;51.042;13.804;2023-11-19T11:41:24;1.98;;;1.10;;
19032;SDS011;9649;51.042;13.804;2023-11-19T11:52:00;4.27;;;1.30;;
19032;SDS011;9649;51.042;13.804;2023-11-19T11:57:08;5.93;;;1.52;;
19032;SDS011;9649;51.042;13.804;2023-11-19T12:02:15;7.05;;;1.27;;
19032;SDS011;9649;51.042;13.804;2023-11-19T12:07:21;2.72;;;1.17;;
19032;SDS011;9649;51.042;13.804;2023-11-19T12:12:26;3.45;;;1.02;;
19032;SDS011;9649;51.042;13.804;2023-11-19T12:17:36;5.35;;;1.20;;
19032;SDS011;9649;51.042;13.804;2023-11-19T12:22:42;4.70;;;1.30;;
19032;SDS011;9649;51.042;13.804;2023-11-19T12:27:47;4.75;;;1.50;;
19032;SDS011;9649;51.042;13.804;2023-11-19T12:32:51;4.10;;;1.42;;
19032;SDS011;9649;51.042;13.804;2023-11-19T12:37:57;5.80;;;1.40;;
19032;SDS011;9649;51.042;13.804;2023-11-19T12:43:00;3.70;;;1.55;;
19032;SDS011;9649;51.042;13.804;2023-11-19T12:48:06;6.60;;;1.73;;
19032;SDS011;9649;51.042;13.804;2023-11-19T12:53:12;7.72;;;1.60;;
19032;SDS011;9649;51.042;13.804;2023-11-19T12:58:27;9.35;;;1.95;;
19032;SDS011;9649;51.042;13.804;2023-11-19T13:03:31;5.25;;;1.80;;
19032;SDS011;9649;51.042;13.804;2023-11-19T13:08:37;9.30;;;1.80;;
19032;SDS011;9649;51.042;13.804;2023-11-19T13:13:56;5.90;;;1.60;;
19032;SDS011;9649;51.042;13.804;2023-11-19T13:19:00;7.40;;;2.13;;
19032;SDS011;9649;51.042;13.804;2023-11-19T13:24:05;7.13;;;1.88;;
19032;SDS011;9649;51.042;13.804;2023-11-19T13:29:08;8.32;;;1.73;;
19032;SDS011;9649;51.042;13.804;2023-11-19T13:34:11;7.70;;;1.77;;
19032;SDS011;9649;51.042;13.804;2023-11-19T13:39:16;10.38;;;2.17;;
19032;SDS011;9649;51.042;13.804;2023-11-19T13:44:24;11.32;;;2.28;;
19032;SDS011;9649;51.042;13.804;2023-11-19T13:49:27;8.85;;;1.85;;
19032;SDS011;9649;51.042;13.804;2023-11-19T13:54:31;14.02;;;2.72;;
19032;SDS011;9649;51.042;13.804;2023-11-19T13:59:39;11.88;;;2.38;;
19032;SDS011;9649;51.042;13.804;2023-11-19T14:04:43;13.20;;;2.05;;
19032;SDS011;9649;51.042;13.804;2023-11-19T14:09:47;11.30;;;2.15;;
19032;SDS011;9649;51.042;13.804;2023-11-19T14:14:50;13.23;;;2.15;;
19032;SDS011;9649;51.042;13.804;2023-11-19T14:19:53;13.50;;;2.13;;
19032;SDS011;9649;51.042;13.804;2023-11-19T14:24:57;12.38;;;2.60;;
19032;SDS011;9649;51.042;13.804;2023-11-19T14:30:00;11.00;;;2.08;;
19032;SDS011;9649;51.042;13.804;2023-11-19T14:35:04;10.82;;;2.35;;
19032;SDS011;9649;51.042;13.804;2023-11-19T14:40:09;12.30;;;3.13;;
19032;SDS011;9649;51.042;13.804;2023-11-19T14:45:13;12.77;;;2.10;;
19032;SDS011;9649;51.042;13.804;2023-11-19T14:50:16;8.63;;;2.10;;
19032;SDS011;9649;51.042;13.804;2023-11-19T14:55:20;13.68;;;2.33;;
19032;SDS011;9649;51.042;13.804;2023-11-19T15:00:23;12.30;;;2.35;;
19032;SDS011;9649;51.042;13.804;2023-11-19T15:05:26;10.32;;;2.30;;
19032;SDS011;9649;51.042;13.804;2023-11-19T15:10:31;10.65;;;2.33;;
19032;SDS011;9649;51.042;13.804;2023-11-19T15:15:34;10.90;;;2.35;;
19032;SDS011;9649;51.042;13.804;2023-11-19T15:20:37;14.00;;;2.42;;
19032;SDS011;9649;51.042;13.804;2023-11-19T15:25:42;11.60;;;2.50;;
19032;SDS011;9649;51.042;13.804;2023-11-19T15:30:45;12.02;;;2.42;;
19032;SDS011;9649;51.042;13.804;2023-11-19T15:35:47;11.35;;;2.28;;
19032;SDS011;9649;51.042;13.804;2023-11-19T15:41:00;12.95;;;2.50;;
19032;SDS011;9649;51.042;13.804;2023-11-19T15:46:05;14.25;;;2.63;;
19032;SDS011;9649;51.042;13.804;2023-11-19T15:51:08;12.10;;;2.55;;
19032;SDS011;9649;51.042;13.804;2023-11-19T15:56:13;13.90;;;2.73;;
19032;SDS011;9649;51.042;13.804;2023-11-19T16:01:17;10.93;;;2.22;;
19032;SDS011;9649;51.042;13.804;2023-11-19T16:06:20;10.13;;;2.40;;
19032;SDS011;9649;51.042;13.804;2023-11-19T16:11:25;10.85;;;2.53;;
19032;SDS011;9649;51.042;13.804;2023-11-19T16:16:28;12.37;;;2.27;;
19032;SDS011;9649;51.042;13.804;2023-11-19T16:21:31;13.40;;;2.40;;
19032;SDS011;9649;51.042;13.804;2023-11-19T16:26:37;8.37;;;2.33;;
19032;SDS011;9649;51.042;13.804;2023-11-19T16:31:40;10.23;;;2.30;;
19032;SDS011;9649;51.042;13.804;2023-11-19T16:36:44;11.63;;;2.40;;
19032;SDS011;9649;51.042;13.804;2023-11-19T16:41:48;13.83;;;2.53;;
19032;SDS011;9649;51.042;13.804;2023-11-19T16:46:51;6.75;;;2.20;;
19032;SDS011;9649;51.042;13.804;2023-11-19T16:51:54;8.57;;;2.40;;
19032;SDS011;9649;51.042;13.804;2023-11-19T16:57:01;9.23;;;2.60;;
19032;SDS011;9649;51.042;13.804;2023-11-19T17:02:04;14.43;;;2.40;;
19032;SDS011;9649;51.042;13.804;2023-11-19T17:07:07;13.20;;;2.37;;
19032;SDS011;9649;51.042;13.804;2023-11-19T17:12:11;9.75;;;2.47;;
19032;SDS011;9649;51.042;13.804;2023-11-19T17:17:14;12.70;;;2.30;;
19032;SDS011;9649;51.042;13.804;2023-11-19T17:22:17;8.50;;;2.20;;
19032;SDS011;9649;51.042;13.804;2023-11-19T17:27:21;21.57;;;3.23;;
19032;SDS011;9649;51.042;13.804;2023-11-19T17:32:25;10.27;;;2.60;;
19032;SDS011;9649;51.042;13.804;2023-11-19T17:37:28;10.73;;;2.45;;
19032;SDS011;9649;51.042;13.804;2023-11-19T17:42:33;13.53;;;2.43;;
19032;SDS011;9649;51.042;13.804;2023-11-19T17:47:36;10.63;;;2.60;;
19032;SDS011;9649;51.042;13.804;2023-11-19T17:52:39;12.40;;;2.03;;
19032;SDS011;9649;51.042;13.804;2023-11-19T17:57:44;11.10;;;2.40;;
19032;SDS011;9649;51.042;13.804;2023-11-19T18:02:48;11.03;;;2.47;;
19032;SDS011;9649;51.042;13.804;2023-11-19T18:07:53;10.23;;;2.50;;
19032;SDS011;9649;51.042;13.804;2023-11-19T18:12:58;13.27;;;2.10;;
19032;SDS011;9649;51.042;13.804;2023-11-19T18:18:00;9.83;;;2.40;;
19032;SDS011;9649;51.042;13.804;2023-11-19T18:23:03;12.50;;;2.53;;
19032;SDS011;9649;51.042;13.804;2023-11-19T18:28:08;9.13;;;2.50;;
19032;SDS011;9649;51.042;13.804;2023-11-19T18:33:11;11.57;;;2.10;;
19032;SDS011;9649;51.042;13.804;2023-11-19T18:38:14;9.83;;;1.90;;
19032;SDS011;9649;51.042;13.804;2023-11-19T18:43:18;17.60;;;4.27;;
19032;SDS011;9649;51.042;13.804;2023-11-19T18:48:21;11.63;;;2.17;;
19032;SDS011;9649;51.042;13.804;2023-11-19T18:53:25;11.20;;;2.37;;
19032;SDS011;9649;51.042;13.804;2023-11-19T18:58:30;14.03;;;2.67;;
19032;SDS011;9649;51.042;13.804;2023-11-19T19:03:32;9.90;;;2.07;;
19032;SDS011;9649;51.042;13.804;2023-11-19T19:08:37;9.33;;;2.37;;
19032;SDS011;9649;51.042;13.804;2023-11-19T19:13:42;14.13;;;2.37;;
19032;SDS011;9649;51.042;13.804;2023-11-19T19:18:46;12.47;;;2.73;;
19032;SDS011;9649;51.042;13.804;2023-11-19T19:23:49;16.47;;;3.80;;
19032;SDS011;9649;51.042;13.804;2023-11-19T19:28:53;14.47;;;2.77;;
19032;SDS011;9649;51.042;13.804;2023-11-19T19:33:58;12.33;;;2.47;;
19032;SDS011;9649;51.042;13.804;2023-11-19T19:39:01;12.80;;;2.63;;
19032;SDS011;9649;51.042;13.804;2023-11-19T19:44:06;11.97;;;2.50;;
19032;SDS011;9649;51.042;13.804;2023-11-19T19:49:11;11.50;;;2.33;;
19032;SDS011;9649;51.042;13.804;2023-11-19T19:54:14;15.20;;;2.63;;
19032;SDS011;9649;51.042;13.804;2023-11-19T19:59:18;10.02;;;2.80;;
19032;SDS011;9649;51.042;13.804;2023-11-19T20:04:21;10.43;;;2.60;;
19032;SDS011;9649;51.042;13.804;2023-11-19T20:09:24;9.27;;;2.50;;
19032;SDS011;9649;51.042;13.804;2023-11-19T20:14:28;11.37;;;2.20;;
19032;SDS011;9649;51.042;13.804;2023-11-19T20:19:31;10.83;;;2.50;;
19032;SDS011;9649;51.042;13.804;2023-11-19T20:24:34;12.57;;;2.37;;
19032;SDS011;9649;51.042;13.804;2023-11-19T20:29:39;13.00;;;2.60;;
19032;SDS011;9649;51.042;13.804;2023-11-19T20:34:43;11.20;;;2.43;;
19032;SDS011;9649;51.042;13.804;2023-11-19T20:39:46;10.63;;;2.30;;
19032;SDS011;9649;51.042;13.804;2023-11-19T20:44:50;8.43;;;1.73;;
19032;SDS011;9649;51.042;13.804;2023-11-19T20:49:53;13.70;;;2.03;;
19032;SDS011;9649;51.042;13.804;2023-11-19T20:55:00;15.23;;;2.30;;
19032;SDS011;9649;51.042;13.804;2023-11-19T21:00:07;8.90;;;2.30;;
19032;SDS011;9649;51.042;13.804;2023-11-19T21:05:13;8.37;;;2.00;;
19032;SDS011;9649;51.042;13.804;2023-11-19T21:10:16;7.20;;;1.67;;
19032;SDS011;9649;51.042;13.804;2023-11-19T21:15:21;10.63;;;2.10;;
19032;SDS011;9649;51.042;13.804;2023-11-19T21:20:24;8.53;;;1.97;;
19032;SDS011;9649;51.042;13.804;2023-11-19T21:25:27;7.40;;;1.90;;
19032;SDS011;9649;51.042;13.804;2023-11-19T21:30:52;10.77;;;1.97;;
19032;SDS011;9649;51.042;13.804;2023-11-19T21:42:54;9.93;;;1.77;;
19032;SDS011;9649;51.042;13.804;2023-11-19T21:48:37;8.60;;;1.80;;
19032;SDS011;9649;51.042;13.804;2023-11-19T21:54:08;10.13;;;2.33;;
19032;SDS011;9649;51.042;13.804;2023-11-19T21:59:19;6.97;;;1.80;;
19032;SDS011;9649;51.042;13.804;2023-11-19T22:04:25;8.73;;;1.50;;
19032;SDS011;9649;51.042;13.804;2023-11-19T22:16:05;6.87;;;1.50;;
19032;SDS011;9649;51.042;13.804;2023-11-19T22:21:31;9.80;;;1.70;;
19032;SDS011;9649;51.042;13.804;2023-11-19T22:27:12;10.53;;;2.27;;
19032;SDS011;9649;51.042;13.804;2023-11-19T22:32:43;8.80;;;1.97;;
19032;SDS011;9649;51.042;13.804;2023-11-19T22:37:47;7.43;;;1.77;;
19032;SDS011;9649;51.042;13.804;2023-11-19T22:42:50;11.13;;;2.00;;
19032;SDS011;9649;51.042;13.804;2023-11-19T22:47:53;5.70;;;2.00;;
19032;SDS011;9649;51.042;13.804;2023-11-19T22:52:57;12.83;;;1.80;;
19032;SDS011;9649;51.042;13.804;2023-11-19T22:58:01;8.90;;;1.70;;
19032;SDS011;9649;51.042;13.804;2023-11-19T23:03:05;13.60;;;2.17;;
19032;SDS011;9649;51.042;13.804;2023-11-19T23:08:10;14.20;;;2.50;;
19032;SDS011;9649;51.042;13.804;2023-11-19T23:13:13;6.53;;;1.70;;
19032;SDS011;9649;51.042;13.804;2023-11-19T23:18:16;10.17;;;1.83;;
19032;SDS011;9649;51.042;13.804;2023-11-19T23:23:20;12.40;;;2.20;;
19032;SDS011;9649;51.042;13.804;2023-11-19T23:28:24;12.77;;;2.27;;
19032;SDS011;9649;51.042;13.804;2023-11-19T23:33:27;10.10;;;1.90;;
19032;SDS011;9649;51.042;13.804;2023-11-19T23:38:34;16.60;;;2.40;;
19032;SDS011;9649;51.042;13.804;2023-11-19T23:43:37;7.20;;;1.90;;
19032;SDS011;9649;51.042;13.804;2023-11-19T23:48:41;7.00;;;1.57;;
19032;SDS011;9649;51.042;13.804;2023-11-19T23:53:48;10.00;;;1.93;;
19032;SDS011;9649;51.042;13.804;2023-11-19T23:58:51;9.67;;;2.13;;
